sensor_id;sensor_type;location;lat;lon;timestamp;P1;durP1;ratioP1;P2;durP2;ratioP2
34491;SDS011;20737;49.908;8.126;2023-03-14T00:00:07;3.40;;;1.15;;
34491;SDS011;20737;49.908;8.126;2023-03-14T00:02:35;1.65;;;1.10;;
34491;SDS011;20737;49.908;8.126;2023-03-14T00:05:04;5.47;;;2.00;;
34491;SDS011;20737;49.908;8.126;2023-03-14T00:07:32;2.45;;;1.33;;
34491;SDS011;20737;49.908;8.126;2023-03-14T00:10:00;4.57;;;1.98;;
34491;SDS011;20737;49.908;8.126;2023-03-14T00:12:29;5.18;;;1.80;;
34491;SDS011;20737;49.908;8.126;2023-03-14T00:15:03;4.65;;;1.13;;
34491;SDS011;20737;49.908;8.126;2023-03-14T00:17:33;3.22;;;1.73;;
34491;SDS011;20737;49.908;8.126;2023-03-14T00:20:01;1.80;;;1.02;;
34491;SDS011;20737;49.908;8.126;2023-03-14T00:22:36;1.50;;;1.00;;
34491;SDS011;20737;49.908;8.126;2023-03-14T00:25:04;1.92;;;0.95;;
34491;SDS011;20737;49.908;8.126;2023-03-14T00:27:32;3.80;;;1.05;;
34491;SDS011;20737;49.908;8.126;2023-03-14T00:29:59;1.67;;;0.88;;
34491;SDS011;20737;49.908;8.126;2023-03-14T00:32:26;3.97;;;1.27;;
34491;SDS011;20737;49.908;8.126;2023-03-14T00:34:56;3.67;;;1.00;;
34491;SDS011;20737;49.908;8.126;2023-03-14T00:37:24;1.90;;;1.25;;
34491;SDS011;20737;49.908;8.126;2023-03-14T00:39:51;4.30;;;1.13;;
34491;SDS011;20737;49.908;8.126;2023-03-14T00:42:18;2.90;;;1.15;;
34491;SDS011;20737;49.908;8.126;2023-03-14T00:44:47;4.80;;;0.70;;
34491;SDS011;20737;49.908;8.126;2023-03-14T00:47:14;4.20;;;0.80;;
34491;SDS011;20737;49.908;8.126;2023-03-14T00:49:50;1.85;;;0.80;;
34491;SDS011;20737;49.908;8.126;2023-03-14T00:52:16;5.47;;;1.85;;
34491;SDS011;20737;49.908;8.126;2023-03-14T00:54:47;1.58;;;0.93;;
34491;SDS011;20737;49.908;8.126;2023-03-14T00:57:13;3.67;;;0.75;;
34491;SDS011;20737;49.908;8.126;2023-03-14T00:59:40;5.65;;;1.13;;
34491;SDS011;20737;49.908;8.126;2023-03-14T01:02:07;1.00;;;0.90;;
34491;SDS011;20737;49.908;8.126;2023-03-14T01:04:34;3.28;;;1.00;;
34491;SDS011;20737;49.908;8.126;2023-03-14T01:07:02;4.18;;;0.90;;
34491;SDS011;20737;49.908;8.126;2023-03-14T01:09:29;2.55;;;1.00;;
34491;SDS011;20737;49.908;8.126;2023-03-14T01:11:59;2.78;;;1.02;;
34491;SDS011;20737;49.908;8.126;2023-03-14T01:14:25;3.50;;;0.98;;
34491;SDS011;20737;49.908;8.126;2023-03-14T01:16:52;3.10;;;0.88;;
34491;SDS011;20737;49.908;8.126;2023-03-14T01:19:19;2.70;;;0.73;;
34491;SDS011;20737;49.908;8.126;2023-03-14T01:21:46;5.90;;;1.02;;
34491;SDS011;20737;49.908;8.126;2023-03-14T01:24:12;1.98;;;0.80;;
34491;SDS011;20737;49.908;8.126;2023-03-14T01:26:40;2.00;;;0.90;;
34491;SDS011;20737;49.908;8.126;2023-03-14T01:29:08;7.00;;;0.82;;
34491;SDS011;20737;49.908;8.126;2023-03-14T01:31:35;6.00;;;0.85;;
34491;SDS011;20737;49.908;8.126;2023-03-14T01:34:02;2.78;;;1.58;;
34491;SDS011;20737;49.908;8.126;2023-03-14T01:36:29;4.55;;;1.08;;
34491;SDS011;20737;49.908;8.126;2023-03-14T01:38:55;3.70;;;0.90;;
34491;SDS011;20737;49.908;8.126;2023-03-14T01:41:23;1.05;;;0.82;;
34491;SDS011;20737;49.908;8.126;2023-03-14T01:43:52;4.63;;;1.40;;
34491;SDS011;20737;49.908;8.126;2023-03-14T01:46:25;5.55;;;1.23;;
34491;SDS011;20737;49.908;8.126;2023-03-14T01:48:57;6.93;;;1.63;;
34491;SDS011;20737;49.908;8.126;2023-03-14T01:51:41;4.10;;;1.08;;
34491;SDS011;20737;49.908;8.126;2023-03-14T01:54:14;7.45;;;1.00;;
34491;SDS011;20737;49.908;8.126;2023-03-14T01:56:44;3.60;;;1.02;;
34491;SDS011;20737;49.908;8.126;2023-03-14T01:59:13;3.20;;;1.27;;
34491;SDS011;20737;49.908;8.126;2023-03-14T02:01:42;1.40;;;0.60;;
34491;SDS011;20737;49.908;8.126;2023-03-14T02:04:12;2.10;;;0.90;;
34491;SDS011;20737;49.908;8.126;2023-03-14T02:06:45;6.60;;;1.23;;
34491;SDS011;20737;49.908;8.126;2023-03-14T02:09:15;3.55;;;1.02;;
34491;SDS011;20737;49.908;8.126;2023-03-14T02:11:43;2.25;;;1.33;;
34491;SDS011;20737;49.908;8.126;2023-03-14T02:14:14;3.25;;;1.10;;
34491;SDS011;20737;49.908;8.126;2023-03-14T02:16:51;4.88;;;1.13;;
34491;SDS011;20737;49.908;8.126;2023-03-14T02:19:19;11.38;;;1.23;;
34491;SDS011;20737;49.908;8.126;2023-03-14T02:21:56;3.05;;;0.73;;
34491;SDS011;20737;49.908;8.126;2023-03-14T02:24:31;5.35;;;1.27;;
34491;SDS011;20737;49.908;8.126;2023-03-14T02:27:07;1.13;;;0.90;;
34491;SDS011;20737;49.908;8.126;2023-03-14T02:29:39;3.10;;;1.13;;
34491;SDS011;20737;49.908;8.126;2023-03-14T02:32:11;3.75;;;1.65;;
34491;SDS011;20737;49.908;8.126;2023-03-14T02:34:39;3.53;;;1.48;;
34491;SDS011;20737;49.908;8.126;2023-03-14T02:37:07;6.88;;;2.55;;
34491;SDS011;20737;49.908;8.126;2023-03-14T02:39:36;5.70;;;1.25;;
34491;SDS011;20737;49.908;8.126;2023-03-14T02:42:05;6.15;;;1.27;;
34491;SDS011;20737;49.908;8.126;2023-03-14T02:44:34;4.28;;;1.23;;
34491;SDS011;20737;49.908;8.126;2023-03-14T02:47:02;2.05;;;0.75;;
34491;SDS011;20737;49.908;8.126;2023-03-14T02:49:30;2.70;;;1.30;;
34491;SDS011;20737;49.908;8.126;2023-03-14T02:51:58;3.08;;;1.60;;
34491;SDS011;20737;49.908;8.126;2023-03-14T02:54:25;4.18;;;1.23;;
34491;SDS011;20737;49.908;8.126;2023-03-14T02:56:52;5.60;;;1.42;;
34491;SDS011;20737;49.908;8.126;2023-03-14T02:59:20;6.07;;;1.45;;
34491;SDS011;20737;49.908;8.126;2023-03-14T03:01:47;2.97;;;1.02;;
34491;SDS011;20737;49.908;8.126;2023-03-14T03:04:13;2.83;;;1.10;;
34491;SDS011;20737;49.908;8.126;2023-03-14T03:06:40;3.65;;;1.10;;
34491;SDS011;20737;49.908;8.126;2023-03-14T03:09:07;5.03;;;1.30;;
34491;SDS011;20737;49.908;8.126;2023-03-14T03:11:34;3.03;;;1.25;;
34491;SDS011;20737;49.908;8.126;2023-03-14T03:14:03;4.05;;;1.30;;
34491;SDS011;20737;49.908;8.126;2023-03-14T03:16:31;6.65;;;1.30;;
34491;SDS011;20737;49.908;8.126;2023-03-14T03:18:58;6.05;;;2.85;;
34491;SDS011;20737;49.908;8.126;2023-03-14T03:21:24;4.22;;;1.33;;
34491;SDS011;20737;49.908;8.126;2023-03-14T03:23:51;7.78;;;1.08;;
34491;SDS011;20737;49.908;8.126;2023-03-14T03:26:18;2.70;;;0.85;;
34491;SDS011;20737;49.908;8.126;2023-03-14T03:28:44;2.88;;;1.15;;
34491;SDS011;20737;49.908;8.126;2023-03-14T03:31:11;6.57;;;1.60;;
34491;SDS011;20737;49.908;8.126;2023-03-14T03:33:39;2.40;;;0.88;;
34491;SDS011;20737;49.908;8.126;2023-03-14T03:36:07;3.95;;;1.05;;
34491;SDS011;20737;49.908;8.126;2023-03-14T03:38:37;2.40;;;1.00;;
34491;SDS011;20737;49.908;8.126;2023-03-14T03:41:05;2.60;;;1.45;;
34491;SDS011;20737;49.908;8.126;2023-03-14T03:43:32;4.68;;;1.02;;
34491;SDS011;20737;49.908;8.126;2023-03-14T03:46:02;5.55;;;1.10;;
34491;SDS011;20737;49.908;8.126;2023-03-14T03:48:29;3.45;;;1.10;;
34491;SDS011;20737;49.908;8.126;2023-03-14T03:50:57;1.95;;;0.70;;
34491;SDS011;20737;49.908;8.126;2023-03-14T03:53:24;1.85;;;1.15;;
34491;SDS011;20737;49.908;8.126;2023-03-14T03:55:51;4.80;;;0.77;;
34491;SDS011;20737;49.908;8.126;2023-03-14T03:58:20;1.45;;;0.50;;
34491;SDS011;20737;49.908;8.126;2023-03-14T04:00:48;2.53;;;0.68;;
34491;SDS011;20737;49.908;8.126;2023-03-14T04:03:14;1.35;;;0.55;;
34491;SDS011;20737;49.908;8.126;2023-03-14T04:05:41;3.55;;;0.90;;
34491;SDS011;20737;49.908;8.126;2023-03-14T04:08:12;2.75;;;0.75;;
34491;SDS011;20737;49.908;8.126;2023-03-14T04:10:39;2.75;;;0.52;;
34491;SDS011;20737;49.908;8.126;2023-03-14T04:13:05;2.20;;;0.73;;
34491;SDS011;20737;49.908;8.126;2023-03-14T04:15:32;2.05;;;0.70;;
34491;SDS011;20737;49.908;8.126;2023-03-14T04:17:59;4.13;;;1.15;;
34491;SDS011;20737;49.908;8.126;2023-03-14T04:20:25;1.40;;;0.50;;
34491;SDS011;20737;49.908;8.126;2023-03-14T04:22:52;2.63;;;0.80;;
34491;SDS011;20737;49.908;8.126;2023-03-14T04:25:22;1.88;;;0.60;;
34491;SDS011;20737;49.908;8.126;2023-03-14T04:27:49;2.92;;;0.80;;
34491;SDS011;20737;49.908;8.126;2023-03-14T04:30:16;3.13;;;0.90;;
34491;SDS011;20737;49.908;8.126;2023-03-14T04:32:43;3.22;;;0.70;;
34491;SDS011;20737;49.908;8.126;2023-03-14T04:35:10;2.03;;;0.40;;
34491;SDS011;20737;49.908;8.126;2023-03-14T04:37:36;2.25;;;0.85;;
34491;SDS011;20737;49.908;8.126;2023-03-14T04:40:03;2.30;;;0.57;;
34491;SDS011;20737;49.908;8.126;2023-03-14T04:42:33;2.08;;;0.63;;
34491;SDS011;20737;49.908;8.126;2023-03-14T04:44:59;2.58;;;0.90;;
34491;SDS011;20737;49.908;8.126;2023-03-14T04:47:28;1.20;;;0.70;;
34491;SDS011;20737;49.908;8.126;2023-03-14T04:49:59;2.22;;;0.77;;
34491;SDS011;20737;49.908;8.126;2023-03-14T04:52:28;1.55;;;0.60;;
34491;SDS011;20737;49.908;8.126;2023-03-14T04:54:55;4.60;;;0.70;;
34491;SDS011;20737;49.908;8.126;2023-03-14T04:57:22;3.85;;;0.65;;
34491;SDS011;20737;49.908;8.126;2023-03-14T04:59:50;2.40;;;0.70;;
34491;SDS011;20737;49.908;8.126;2023-03-14T05:02:17;2.60;;;0.90;;
34491;SDS011;20737;49.908;8.126;2023-03-14T05:04:45;1.48;;;0.52;;
34491;SDS011;20737;49.908;8.126;2023-03-14T05:07:13;3.42;;;0.60;;
34491;SDS011;20737;49.908;8.126;2023-03-14T05:09:40;4.80;;;0.70;;
34491;SDS011;20737;49.908;8.126;2023-03-14T05:12:07;0.50;;;0.43;;
34491;SDS011;20737;49.908;8.126;2023-03-14T05:14:34;1.25;;;0.63;;
34491;SDS011;20737;49.908;8.126;2023-03-14T05:17:02;3.50;;;0.52;;
34491;SDS011;20737;49.908;8.126;2023-03-14T05:19:28;2.60;;;0.73;;
34491;SDS011;20737;49.908;8.126;2023-03-14T05:21:55;4.30;;;0.80;;
34491;SDS011;20737;49.908;8.126;2023-03-14T05:24:22;1.45;;;0.60;;
34491;SDS011;20737;49.908;8.126;2023-03-14T05:26:50;3.42;;;0.73;;
34491;SDS011;20737;49.908;8.126;2023-03-14T05:29:19;5.97;;;0.82;;
34491;SDS011;20737;49.908;8.126;2023-03-14T05:31:45;4.68;;;0.82;;
34491;SDS011;20737;49.908;8.126;2023-03-14T05:34:13;0.85;;;0.63;;
34491;SDS011;20737;49.908;8.126;2023-03-14T05:36:40;1.77;;;0.60;;
34491;SDS011;20737;49.908;8.126;2023-03-14T05:39:07;0.30;;;0.30;;
34491;SDS011;20737;49.908;8.126;2023-03-14T05:41:34;1.20;;;0.70;;
34491;SDS011;20737;49.908;8.126;2023-03-14T05:44:00;2.05;;;0.77;;
34491;SDS011;20737;49.908;8.126;2023-03-14T05:46:28;2.03;;;0.60;;
34491;SDS011;20737;49.908;8.126;2023-03-14T05:48:55;1.63;;;0.45;;
34491;SDS011;20737;49.908;8.126;2023-03-14T05:51:35;4.70;;;1.20;;
34491;SDS011;20737;49.908;8.126;2023-03-14T05:54:04;0.95;;;0.70;;
34491;SDS011;20737;49.908;8.126;2023-03-14T05:56:31;0.50;;;0.50;;
34491;SDS011;20737;49.908;8.126;2023-03-14T05:58:57;0.95;;;0.65;;
34491;SDS011;20737;49.908;8.126;2023-03-14T06:01:26;1.55;;;0.40;;
34491;SDS011;20737;49.908;8.126;2023-03-14T06:03:53;2.42;;;0.63;;
34491;SDS011;20737;49.908;8.126;2023-03-14T06:06:20;1.13;;;0.60;;
34491;SDS011;20737;49.908;8.126;2023-03-14T06:08:48;1.52;;;0.63;;
34491;SDS011;20737;49.908;8.126;2023-03-14T06:11:14;3.13;;;0.60;;
34491;SDS011;20737;49.908;8.126;2023-03-14T06:13:41;2.08;;;0.52;;
34491;SDS011;20737;49.908;8.126;2023-03-14T06:16:08;2.97;;;0.80;;
34491;SDS011;20737;49.908;8.126;2023-03-14T06:18:35;1.02;;;0.88;;
34491;SDS011;20737;49.908;8.126;2023-03-14T06:21:02;8.98;;;0.88;;
34491;SDS011;20737;49.908;8.126;2023-03-14T06:23:28;1.75;;;0.60;;
34491;SDS011;20737;49.908;8.126;2023-03-14T06:25:58;2.08;;;0.70;;
34491;SDS011;20737;49.908;8.126;2023-03-14T06:28:24;0.70;;;0.60;;
34491;SDS011;20737;49.908;8.126;2023-03-14T06:30:51;0.50;;;0.47;;
34491;SDS011;20737;49.908;8.126;2023-03-14T06:33:18;2.72;;;0.90;;
34491;SDS011;20737;49.908;8.126;2023-03-14T06:35:45;1.98;;;0.93;;
34491;SDS011;20737;49.908;8.126;2023-03-14T06:38:11;2.67;;;0.88;;
34491;SDS011;20737;49.908;8.126;2023-03-14T06:40:38;1.95;;;0.85;;
34491;SDS011;20737;49.908;8.126;2023-03-14T06:43:09;1.45;;;0.55;;
34491;SDS011;20737;49.908;8.126;2023-03-14T06:45:36;3.28;;;0.68;;
34491;SDS011;20737;49.908;8.126;2023-03-14T06:48:03;1.05;;;0.70;;
34491;SDS011;20737;49.908;8.126;2023-03-14T06:50:30;0.98;;;0.50;;
34491;SDS011;20737;49.908;8.126;2023-03-14T06:52:57;3.33;;;0.60;;
34491;SDS011;20737;49.908;8.126;2023-03-14T06:55:26;1.52;;;0.70;;
34491;SDS011;20737;49.908;8.126;2023-03-14T06:57:53;1.50;;;0.57;;
34491;SDS011;20737;49.908;8.126;2023-03-14T07:00:21;2.15;;;1.25;;
34491;SDS011;20737;49.908;8.126;2023-03-14T07:02:49;2.90;;;0.90;;
34491;SDS011;20737;49.908;8.126;2023-03-14T07:05:16;2.85;;;1.50;;
34491;SDS011;20737;49.908;8.126;2023-03-14T07:07:42;1.33;;;1.00;;
34491;SDS011;20737;49.908;8.126;2023-03-14T07:10:10;0.50;;;0.50;;
34491;SDS011;20737;49.908;8.126;2023-03-14T07:12:38;1.67;;;0.80;;
34491;SDS011;20737;49.908;8.126;2023-03-14T07:15:07;0.57;;;0.50;;
34491;SDS011;20737;49.908;8.126;2023-03-14T07:17:35;1.60;;;0.70;;
34491;SDS011;20737;49.908;8.126;2023-03-14T07:20:02;1.23;;;0.68;;
34491;SDS011;20737;49.908;8.126;2023-03-14T07:22:32;2.53;;;0.85;;
34491;SDS011;20737;49.908;8.126;2023-03-14T07:24:59;2.22;;;1.00;;
34491;SDS011;20737;49.908;8.126;2023-03-14T07:27:28;2.95;;;0.90;;
34491;SDS011;20737;49.908;8.126;2023-03-14T07:29:54;2.78;;;0.80;;
34491;SDS011;20737;49.908;8.126;2023-03-14T07:32:21;1.92;;;0.73;;
34491;SDS011;20737;49.908;8.126;2023-03-14T07:34:49;4.00;;;0.95;;
34491;SDS011;20737;49.908;8.126;2023-03-14T07:37:16;1.35;;;0.93;;
34491;SDS011;20737;49.908;8.126;2023-03-14T07:39:43;1.75;;;1.05;;
34491;SDS011;20737;49.908;8.126;2023-03-14T07:42:18;3.50;;;1.02;;
34491;SDS011;20737;49.908;8.126;2023-03-14T07:44:45;4.28;;;1.00;;
34491;SDS011;20737;49.908;8.126;2023-03-14T07:47:11;1.17;;;0.85;;
34491;SDS011;20737;49.908;8.126;2023-03-14T07:49:38;2.83;;;1.30;;
34491;SDS011;20737;49.908;8.126;2023-03-14T07:52:06;2.42;;;0.98;;
34491;SDS011;20737;49.908;8.126;2023-03-14T07:54:33;2.50;;;0.98;;
34491;SDS011;20737;49.908;8.126;2023-03-14T07:57:00;2.13;;;1.48;;
34491;SDS011;20737;49.908;8.126;2023-03-14T07:59:26;1.65;;;1.00;;
34491;SDS011;20737;49.908;8.126;2023-03-14T08:01:56;1.33;;;1.00;;
34491;SDS011;20737;49.908;8.126;2023-03-14T08:04:24;3.63;;;0.90;;
34491;SDS011;20737;49.908;8.126;2023-03-14T08:06:52;1.27;;;1.15;;
34491;SDS011;20737;49.908;8.126;2023-03-14T08:09:20;1.75;;;1.40;;
34491;SDS011;20737;49.908;8.126;2023-03-14T08:11:47;2.75;;;1.20;;
34491;SDS011;20737;49.908;8.126;2023-03-14T08:14:14;2.40;;;1.58;;
34491;SDS011;20737;49.908;8.126;2023-03-14T08:16:43;1.10;;;1.00;;
34491;SDS011;20737;49.908;8.126;2023-03-14T08:19:12;4.13;;;1.85;;
34491;SDS011;20737;49.908;8.126;2023-03-14T08:21:41;2.33;;;1.20;;
34491;SDS011;20737;49.908;8.126;2023-03-14T08:24:07;2.33;;;1.38;;
34491;SDS011;20737;49.908;8.126;2023-03-14T08:26:37;2.45;;;1.30;;
34491;SDS011;20737;49.908;8.126;2023-03-14T08:29:03;1.30;;;1.10;;
34491;SDS011;20737;49.908;8.126;2023-03-14T08:31:30;2.80;;;1.60;;
34491;SDS011;20737;49.908;8.126;2023-03-14T08:34:02;2.83;;;1.60;;
34491;SDS011;20737;49.908;8.126;2023-03-14T08:36:31;2.45;;;1.42;;
34491;SDS011;20737;49.908;8.126;2023-03-14T08:39:02;2.30;;;1.33;;
34491;SDS011;20737;49.908;8.126;2023-03-14T08:44:01;1.33;;;1.23;;
34491;SDS011;20737;49.908;8.126;2023-03-14T08:46:30;1.17;;;1.13;;
34491;SDS011;20737;49.908;8.126;2023-03-14T08:48:56;1.30;;;1.10;;
34491;SDS011;20737;49.908;8.126;2023-03-14T08:51:26;2.20;;;1.00;;
34491;SDS011;20737;49.908;8.126;2023-03-14T08:53:56;1.98;;;1.10;;
34491;SDS011;20737;49.908;8.126;2023-03-14T08:56:23;2.65;;;1.67;;
34491;SDS011;20737;49.908;8.126;2023-03-14T08:58:52;2.45;;;1.27;;
34491;SDS011;20737;49.908;8.126;2023-03-14T09:01:22;1.70;;;1.05;;
34491;SDS011;20737;49.908;8.126;2023-03-14T09:03:52;1.38;;;0.93;;
34491;SDS011;20737;49.908;8.126;2023-03-14T09:06:20;1.60;;;0.93;;
34491;SDS011;20737;49.908;8.126;2023-03-14T09:08:56;1.00;;;0.93;;
34491;SDS011;20737;49.908;8.126;2023-03-14T09:11:23;3.13;;;1.10;;
34491;SDS011;20737;49.908;8.126;2023-03-14T09:13:50;1.50;;;1.25;;
34491;SDS011;20737;49.908;8.126;2023-03-14T09:16:17;1.55;;;1.27;;
34491;SDS011;20737;49.908;8.126;2023-03-14T09:18:47;1.67;;;1.30;;
34491;SDS011;20737;49.908;8.126;2023-03-14T09:21:20;3.20;;;1.20;;
34491;SDS011;20737;49.908;8.126;2023-03-14T09:23:50;1.00;;;1.00;;
34491;SDS011;20737;49.908;8.126;2023-03-14T09:26:16;1.05;;;0.95;;
34491;SDS011;20737;49.908;8.126;2023-03-14T09:28:46;1.20;;;1.13;;
34491;SDS011;20737;49.908;8.126;2023-03-14T09:31:16;1.75;;;1.20;;
34491;SDS011;20737;49.908;8.126;2023-03-14T09:33:44;1.23;;;1.05;;
34491;SDS011;20737;49.908;8.126;2023-03-14T09:36:12;1.13;;;1.02;;
34491;SDS011;20737;49.908;8.126;2023-03-14T09:38:43;1.08;;;1.08;;
34491;SDS011;20737;49.908;8.126;2023-03-14T09:41:17;1.50;;;0.90;;
34491;SDS011;20737;49.908;8.126;2023-03-14T09:43:48;2.35;;;0.98;;
34491;SDS011;20737;49.908;8.126;2023-03-14T09:46:20;2.38;;;0.93;;
34491;SDS011;20737;49.908;8.126;2023-03-14T09:48:55;0.90;;;0.80;;
34491;SDS011;20737;49.908;8.126;2023-03-14T09:51:23;2.28;;;1.00;;
34491;SDS011;20737;49.908;8.126;2023-03-14T09:53:55;2.78;;;1.00;;
34491;SDS011;20737;49.908;8.126;2023-03-14T09:56:23;2.35;;;0.88;;
34491;SDS011;20737;49.908;8.126;2023-03-14T09:58:55;1.42;;;1.00;;
34491;SDS011;20737;49.908;8.126;2023-03-14T10:01:27;1.55;;;1.00;;
34491;SDS011;20737;49.908;8.126;2023-03-14T10:06:31;0.90;;;0.90;;
34491;SDS011;20737;49.908;8.126;2023-03-14T10:08:59;0.60;;;0.60;;
34491;SDS011;20737;49.908;8.126;2023-03-14T10:11:39;1.63;;;0.77;;
34491;SDS011;20737;49.908;8.126;2023-03-14T10:14:08;0.80;;;0.80;;
34491;SDS011;20737;49.908;8.126;2023-03-14T10:16:40;0.80;;;0.60;;
34491;SDS011;20737;49.908;8.126;2023-03-14T10:19:10;1.90;;;0.60;;
34491;SDS011;20737;49.908;8.126;2023-03-14T10:21:39;1.65;;;0.70;;
34491;SDS011;20737;49.908;8.126;2023-03-14T10:26:57;1.40;;;0.80;;
34491;SDS011;20737;49.908;8.126;2023-03-14T10:29:28;0.60;;;0.60;;
34491;SDS011;20737;49.908;8.126;2023-03-14T10:31:57;1.23;;;1.00;;
34491;SDS011;20737;49.908;8.126;2023-03-14T10:34:28;1.63;;;1.52;;
34491;SDS011;20737;49.908;8.126;2023-03-14T10:37:06;1.30;;;1.00;;
34491;SDS011;20737;49.908;8.126;2023-03-14T10:39:42;0.80;;;0.80;;
34491;SDS011;20737;49.908;8.126;2023-03-14T10:42:18;1.00;;;0.95;;
34491;SDS011;20737;49.908;8.126;2023-03-14T10:44:48;1.00;;;1.00;;
34491;SDS011;20737;49.908;8.126;2023-03-14T10:47:46;1.17;;;1.08;;
34491;SDS011;20737;49.908;8.126;2023-03-14T10:50:21;1.15;;;0.80;;
34491;SDS011;20737;49.908;8.126;2023-03-14T10:52:52;0.70;;;0.70;;
34491;SDS011;20737;49.908;8.126;2023-03-14T10:55:21;1.65;;;0.55;;
34491;SDS011;20737;49.908;8.126;2023-03-14T10:57:51;0.70;;;0.70;;
34491;SDS011;20737;49.908;8.126;2023-03-14T11:00:19;0.80;;;0.50;;
34491;SDS011;20737;49.908;8.126;2023-03-14T11:02:58;2.20;;;0.77;;
34491;SDS011;20737;49.908;8.126;2023-03-14T11:05:34;0.40;;;0.40;;
34491;SDS011;20737;49.908;8.126;2023-03-14T11:08:09;1.15;;;0.50;;
34491;SDS011;20737;49.908;8.126;2023-03-14T11:10:48;0.50;;;0.50;;
34491;SDS011;20737;49.908;8.126;2023-03-14T11:13:23;1.27;;;0.35;;
34491;SDS011;20737;49.908;8.126;2023-03-14T11:15:57;0.50;;;0.50;;
34491;SDS011;20737;49.908;8.126;2023-03-14T11:21:25;0.88;;;0.52;;
34491;SDS011;20737;49.908;8.126;2023-03-14T11:24:03;0.28;;;0.28;;
34491;SDS011;20737;49.908;8.126;2023-03-14T11:26:44;0.20;;;0.20;;
34491;SDS011;20737;49.908;8.126;2023-03-14T11:29:20;0.52;;;0.30;;
34491;SDS011;20737;49.908;8.126;2023-03-14T11:31:57;0.28;;;0.28;;
34491;SDS011;20737;49.908;8.126;2023-03-14T11:34:32;0.38;;;0.38;;
34491;SDS011;20737;49.908;8.126;2023-03-14T11:37:04;0.20;;;0.20;;
34491;SDS011;20737;49.908;8.126;2023-03-14T11:39:39;0.68;;;0.32;;
34491;SDS011;20737;49.908;8.126;2023-03-14T11:42:08;0.10;;;0.10;;
34491;SDS011;20737;49.908;8.126;2023-03-14T11:44:42;0.10;;;0.10;;
34491;SDS011;20737;49.908;8.126;2023-03-14T11:47:29;0.30;;;0.30;;
34491;SDS011;20737;49.908;8.126;2023-03-14T11:50:01;0.30;;;0.30;;
34491;SDS011;20737;49.908;8.126;2023-03-14T11:52:33;0.20;;;0.20;;
34491;SDS011;20737;49.908;8.126;2023-03-14T11:55:07;0.10;;;0.10;;
34491;SDS011;20737;49.908;8.126;2023-03-14T11:57:39;0.20;;;0.20;;
34491;SDS011;20737;49.908;8.126;2023-03-14T12:00:12;0.20;;;0.20;;
34491;SDS011;20737;49.908;8.126;2023-03-14T12:02:44;1.33;;;0.20;;
34491;SDS011;20737;49.908;8.126;2023-03-14T12:08:29;0.25;;;0.25;;
34491;SDS011;20737;49.908;8.126;2023-03-14T12:11:14;0.40;;;0.40;;
34491;SDS011;20737;49.908;8.126;2023-03-14T12:13:51;0.30;;;0.30;;
34491;SDS011;20737;49.908;8.126;2023-03-14T12:16:31;0.22;;;0.20;;
34491;SDS011;20737;49.908;8.126;2023-03-14T12:19:13;0.30;;;0.30;;
34491;SDS011;20737;49.908;8.126;2023-03-14T12:21:50;0.32;;;0.30;;
34491;SDS011;20737;49.908;8.126;2023-03-14T12:24:24;0.60;;;0.52;;
34491;SDS011;20737;49.908;8.126;2023-03-14T12:26:56;0.15;;;0.15;;
34491;SDS011;20737;49.908;8.126;2023-03-14T12:29:28;0.35;;;0.20;;
34491;SDS011;20737;49.908;8.126;2023-03-14T12:34:50;0.10;;;0.10;;
34491;SDS011;20737;49.908;8.126;2023-03-14T12:37:21;0.20;;;0.20;;
34491;SDS011;20737;49.908;8.126;2023-03-14T12:40:03;0.20;;;0.20;;
34491;SDS011;20737;49.908;8.126;2023-03-14T12:42:40;0.20;;;0.20;;
34491;SDS011;20737;49.908;8.126;2023-03-14T12:48:10;0.10;;;0.10;;
34491;SDS011;20737;49.908;8.126;2023-03-14T12:50:41;0.10;;;0.10;;
34491;SDS011;20737;49.908;8.126;2023-03-14T12:56:25;0.65;;;0.30;;
34491;SDS011;20737;49.908;8.126;2023-03-14T12:58:58;0.40;;;0.30;;
34491;SDS011;20737;49.908;8.126;2023-03-14T13:01:47;0.65;;;0.50;;
34491;SDS011;20737;49.908;8.126;2023-03-14T13:04:19;0.55;;;0.50;;
34491;SDS011;20737;49.908;8.126;2023-03-14T13:07:01;2.05;;;0.70;;
34491;SDS011;20737;49.908;8.126;2023-03-14T13:09:35;0.60;;;0.55;;
34491;SDS011;20737;49.908;8.126;2023-03-14T13:12:17;0.85;;;0.73;;
34491;SDS011;20737;49.908;8.126;2023-03-14T13:14:49;0.35;;;0.30;;
34491;SDS011;20737;49.908;8.126;2023-03-14T13:17:19;0.45;;;0.30;;
34491;SDS011;20737;49.908;8.126;2023-03-14T13:19:50;0.80;;;0.80;;
34491;SDS011;20737;49.908;8.126;2023-03-14T13:22:21;1.30;;;0.70;;
34491;SDS011;20737;49.908;8.126;2023-03-14T13:24:50;0.90;;;0.90;;
34491;SDS011;20737;49.908;8.126;2023-03-14T13:27:25;0.50;;;0.50;;
34491;SDS011;20737;49.908;8.126;2023-03-14T13:29:53;0.70;;;0.70;;
34491;SDS011;20737;49.908;8.126;2023-03-14T13:32:21;0.77;;;0.60;;
34491;SDS011;20737;49.908;8.126;2023-03-14T13:34:51;0.73;;;0.60;;
34491;SDS011;20737;49.908;8.126;2023-03-14T13:37:25;0.70;;;0.70;;
34491;SDS011;20737;49.908;8.126;2023-03-14T13:39:53;0.85;;;0.60;;
34491;SDS011;20737;49.908;8.126;2023-03-14T13:42:21;1.95;;;0.85;;
34491;SDS011;20737;49.908;8.126;2023-03-14T13:44:53;1.20;;;0.80;;
34491;SDS011;20737;49.908;8.126;2023-03-14T13:47:23;0.70;;;0.70;;
34491;SDS011;20737;49.908;8.126;2023-03-14T13:49:51;0.63;;;0.63;;
34491;SDS011;20737;49.908;8.126;2023-03-14T13:52:23;0.50;;;0.50;;
34491;SDS011;20737;49.908;8.126;2023-03-14T13:54:53;0.57;;;0.57;;
34491;SDS011;20737;49.908;8.126;2023-03-14T13:57:20;0.50;;;0.40;;
34491;SDS011;20737;49.908;8.126;2023-03-14T13:59:59;1.17;;;0.55;;
34491;SDS011;20737;49.908;8.126;2023-03-14T14:02:30;0.50;;;0.50;;
34491;SDS011;20737;49.908;8.126;2023-03-14T14:04:59;0.77;;;0.60;;
34491;SDS011;20737;49.908;8.126;2023-03-14T14:07:26;0.52;;;0.50;;
34491;SDS011;20737;49.908;8.126;2023-03-14T14:09:54;0.63;;;0.55;;
34491;SDS011;20737;49.908;8.126;2023-03-14T14:12:22;0.40;;;0.40;;
34491;SDS011;20737;49.908;8.126;2023-03-14T14:14:55;0.55;;;0.55;;
34491;SDS011;20737;49.908;8.126;2023-03-14T14:17:27;1.00;;;0.90;;
34491;SDS011;20737;49.908;8.126;2023-03-14T14:19:57;1.08;;;0.82;;
34491;SDS011;20737;49.908;8.126;2023-03-14T14:22:24;0.70;;;0.70;;
34491;SDS011;20737;49.908;8.126;2023-03-14T14:24:52;1.10;;;1.00;;
34491;SDS011;20737;49.908;8.126;2023-03-14T14:27:20;0.73;;;0.68;;
34491;SDS011;20737;49.908;8.126;2023-03-14T14:29:57;1.38;;;0.75;;
34491;SDS011;20737;49.908;8.126;2023-03-14T14:32:27;1.13;;;0.80;;
34491;SDS011;20737;49.908;8.126;2023-03-14T14:35:02;1.17;;;0.90;;
34491;SDS011;20737;49.908;8.126;2023-03-14T14:37:31;0.90;;;0.90;;
34491;SDS011;20737;49.908;8.126;2023-03-14T14:39:59;2.15;;;0.80;;
34491;SDS011;20737;49.908;8.126;2023-03-14T14:42:35;1.50;;;0.88;;
34491;SDS011;20737;49.908;8.126;2023-03-14T14:45:07;2.40;;;0.98;;
34491;SDS011;20737;49.908;8.126;2023-03-14T14:47:51;3.40;;;1.02;;
34491;SDS011;20737;49.908;8.126;2023-03-14T14:50:21;1.20;;;0.77;;
34491;SDS011;20737;49.908;8.126;2023-03-14T14:52:55;1.45;;;0.88;;
34491;SDS011;20737;49.908;8.126;2023-03-14T14:55:28;1.90;;;1.10;;
34491;SDS011;20737;49.908;8.126;2023-03-14T14:58:11;0.63;;;0.63;;
34491;SDS011;20737;49.908;8.126;2023-03-14T15:00:48;0.70;;;0.60;;
34491;SDS011;20737;49.908;8.126;2023-03-14T15:03:19;0.75;;;0.60;;
34491;SDS011;20737;49.908;8.126;2023-03-14T15:05:48;0.70;;;0.70;;
34491;SDS011;20737;49.908;8.126;2023-03-14T15:08:15;1.25;;;1.13;;
34491;SDS011;20737;49.908;8.126;2023-03-14T15:10:50;1.02;;;0.60;;
34491;SDS011;20737;49.908;8.126;2023-03-14T15:13:17;1.05;;;0.63;;
34491;SDS011;20737;49.908;8.126;2023-03-14T15:15:47;0.30;;;0.30;;
34491;SDS011;20737;49.908;8.126;2023-03-14T15:18:22;0.38;;;0.35;;
34491;SDS011;20737;49.908;8.126;2023-03-14T15:20:54;1.75;;;0.63;;
34491;SDS011;20737;49.908;8.126;2023-03-14T15:23:21;0.65;;;0.50;;
34491;SDS011;20737;49.908;8.126;2023-03-14T15:25:51;1.70;;;0.52;;